createdAt,value
2018-03-26T00:02:13.166Z,89.40
2018-03-26T00:04:40.726Z,89.73
2018-03-26T00:07:08.361Z,89.76
2018-03-26T00:09:35.963Z,89.79
2018-03-26T00:12:03.536Z,89.93
2018-03-26T00:14:31.115Z,90.07
2018-03-26T00:16:58.743Z,90.39
2018-03-26T00:19:26.310Z,90.41
2018-03-26T00:21:53.899Z,90.54
2018-03-26T00:24:21.474Z,90.55
2018-03-26T00:26:49.038Z,90.32
2018-03-26T00:29:16.639Z,90.19
2018-03-26T00:31:44.202Z,90.12
2018-03-26T00:34:11.887Z,89.94
2018-03-26T00:36:39.465Z,89.96
2018-03-26T00:39:07.065Z,89.84
2018-03-26T00:41:34.707Z,89.75
2018-03-26T00:44:02.285Z,89.79
2018-03-26T00:46:29.867Z,89.83
2018-03-26T00:48:57.499Z,89.92
2018-03-26T00:51:25.124Z,90.09
2018-03-26T00:53:52.681Z,90.06
2018-03-26T00:56:20.239Z,90.07
2018-03-26T00:58:47.867Z,89.96
2018-03-26T01:01:15.438Z,89.86
2018-03-26T01:03:43.070Z,89.88
2018-03-26T01:06:10.626Z,89.90
2018-03-26T01:08:38.252Z,89.84
2018-03-26T01:11:05.880Z,89.92
2018-03-26T01:13:33.446Z,89.91
2018-03-26T01:16:01.026Z,89.88
2018-03-26T01:18:28.651Z,89.95
2018-03-26T01:20:56.232Z,90.24
2018-03-26T01:23:23.802Z,90.19
2018-03-26T01:25:51.431Z,90.07
2018-03-26T01:28:19.012Z,90.01
2018-03-26T01:30:46.575Z,89.92
2018-03-26T01:33:14.144Z,89.86
2018-03-26T01:35:41.702Z,89.92
2018-03-26T01:38:09.345Z,89.80
2018-03-26T01:40:36.923Z,89.90
2018-03-26T01:43:04.543Z,90.02
2018-03-26T01:45:32.122Z,90.07
2018-03-26T01:47:59.682Z,90.23
2018-03-26T01:50:27.296Z,90.27
2018-03-26T01:52:54.902Z,90.40
2018-03-26T01:55:22.478Z,90.21
2018-03-26T01:57:50.042Z,90.49
2018-03-26T02:00:17.667Z,90.57
2018-03-26T02:02:45.243Z,90.46
2018-03-26T02:05:12.811Z,90.52
2018-03-26T02:07:40.455Z,90.49
2018-03-26T02:10:08.086Z,90.39
2018-03-26T02:12:35.714Z,90.26
2018-03-26T02:15:03.315Z,90.28
2018-03-26T02:17:30.938Z,90.33
2018-03-26T02:19:58.572Z,90.39
2018-03-26T02:22:26.147Z,90.54
2018-03-26T02:24:53.723Z,90.35
2018-03-26T02:27:21.360Z,90.21
2018-03-26T02:29:48.925Z,90.12
2018-03-26T02:32:16.482Z,90.02
2018-03-26T02:34:44.109Z,89.97
2018-03-26T02:37:11.670Z,89.85
2018-03-26T02:39:39.309Z,89.81
2018-03-26T02:42:06.894Z,89.86
2018-03-26T02:44:34.532Z,90.21
2018-03-26T02:47:02.146Z,90.19
2018-03-26T02:49:29.713Z,90.29
2018-03-26T02:51:57.338Z,90.44
2018-03-26T02:54:24.983Z,90.64
2018-03-26T02:56:52.554Z,90.68
2018-03-26T02:59:20.192Z,90.68
2018-03-26T03:01:47.815Z,90.59
2018-03-26T03:04:15.414Z,90.62
2018-03-26T03:06:42.997Z,90.77
2018-03-26T03:09:10.585Z,90.90
2018-03-26T03:11:38.168Z,91.39
2018-03-26T03:14:05.811Z,92.11
2018-03-26T03:16:33.436Z,92.34
2018-03-26T03:19:01.019Z,92.41
2018-03-26T03:21:28.583Z,92.44
2018-03-26T03:23:56.251Z,92.43
2018-03-26T03:26:23.874Z,92.40
2018-03-26T03:28:51.455Z,92.25
2018-03-26T03:31:19.092Z,92.22
2018-03-26T03:33:46.657Z,92.24
2018-03-26T03:36:14.307Z,92.32
2018-03-26T03:38:41.896Z,92.19
2018-03-26T03:41:09.466Z,92.05
2018-03-26T03:43:37.035Z,91.99
2018-03-26T03:46:04.606Z,92.04
2018-03-26T03:48:32.304Z,92.36
2018-03-26T03:50:59.926Z,92.55
2018-03-26T03:53:27.490Z,93.03
2018-03-26T03:55:55.064Z,93.36
2018-03-26T03:58:22.626Z,93.75
2018-03-26T04:00:50.311Z,93.96
2018-03-26T04:03:17.892Z,93.93
2018-03-26T04:05:45.461Z,93.53
2018-03-26T04:08:13.094Z,93.46
2018-03-26T04:10:40.653Z,93.41
2018-03-26T04:13:08.282Z,93.22
2018-03-26T04:15:35.926Z,92.83
2018-03-26T04:18:03.546Z,92.57
2018-03-26T04:20:31.170Z,92.53
2018-03-26T04:22:58.730Z,92.37
2018-03-26T04:25:26.359Z,92.31
2018-03-26T04:27:53.923Z,92.30
2018-03-26T04:30:21.551Z,92.18
2018-03-26T04:32:49.118Z,91.96
2018-03-26T04:35:16.683Z,91.69
2018-03-26T04:37:44.372Z,91.75
2018-03-26T04:40:11.990Z,91.67
2018-03-26T04:42:39.554Z,91.42
2018-03-26T04:45:07.191Z,91.05
2018-03-26T04:47:34.764Z,90.81
2018-03-26T04:50:02.382Z,90.95
2018-03-26T04:52:29.951Z,90.97
2018-03-26T04:54:57.515Z,91.14
2018-03-26T04:57:25.142Z,91.34
2018-03-26T04:59:52.702Z,91.37
2018-03-26T05:02:20.388Z,91.73
2018-03-26T05:04:48.008Z,91.72
2018-03-26T05:07:15.635Z,91.60
2018-03-26T05:09:43.290Z,91.42
2018-03-26T05:12:10.846Z,91.50
2018-03-26T05:14:38.473Z,91.31
2018-03-26T05:17:06.050Z,91.34
2018-03-26T05:19:33.674Z,91.34
2018-03-26T05:22:01.246Z,91.20
2018-03-26T05:24:28.815Z,90.64
2018-03-26T05:26:56.433Z,90.00
2018-03-26T05:29:23.998Z,90.07
2018-03-26T05:31:51.601Z,89.83
2018-03-26T05:34:19.184Z,89.21
2018-03-26T05:36:46.750Z,88.81
2018-03-26T05:39:14.459Z,88.72
2018-03-26T05:41:42.079Z,88.69
2018-03-26T05:44:09.704Z,88.51
2018-03-26T05:46:37.331Z,87.75
2018-03-26T05:49:04.996Z,87.42
2018-03-26T05:51:32.630Z,87.70
2018-03-26T05:54:00.194Z,87.42
2018-03-26T05:56:27.758Z,86.22
2018-03-26T05:58:55.326Z,86.63
2018-03-26T06:01:22.914Z,86.69
2018-03-26T06:03:50.632Z,86.28
2018-03-26T06:06:18.199Z,84.98
2018-03-26T06:08:45.776Z,84.91
2018-03-26T06:11:13.409Z,85.07
2018-03-26T06:13:40.991Z,85.15
2018-03-26T06:16:08.688Z,85.15
2018-03-26T06:18:36.286Z,85.84
2018-03-26T06:21:03.882Z,85.58
2018-03-26T06:23:31.607Z,85.84
2018-03-26T06:25:59.206Z,86.30
2018-03-26T06:28:26.932Z,86.55
2018-03-26T06:30:54.599Z,87.02
2018-03-26T06:33:22.194Z,86.95
2018-03-26T06:35:49.802Z,86.69
2018-03-26T06:38:22.256Z,86.67
2018-03-26T06:40:49.900Z,85.91
2018-03-26T06:43:17.559Z,86.08
2018-03-26T06:45:45.243Z,85.90
2018-03-26T06:48:12.807Z,86.15
2018-03-26T06:50:40.422Z,86.40
2018-03-26T06:53:08.047Z,86.32
2018-03-26T06:55:35.606Z,85.62
2018-03-26T06:58:03.174Z,85.36
2018-03-26T07:00:30.796Z,84.96
2018-03-26T07:02:58.424Z,84.18
2018-03-26T07:05:26.135Z,83.43
2018-03-26T07:07:53.693Z,83.21
2018-03-26T07:10:21.327Z,83.86
2018-03-26T07:12:48.943Z,83.29
2018-03-26T07:15:16.538Z,82.98
2018-03-26T07:17:44.102Z,83.46
2018-03-26T07:20:11.770Z,83.00
2018-03-26T07:22:39.341Z,83.15
2018-03-26T07:25:06.907Z,83.77
2018-03-26T07:27:34.478Z,82.85
2018-03-26T07:30:02.055Z,82.69
2018-03-26T07:32:29.630Z,82.01
2018-03-26T07:34:57.198Z,81.29
2018-03-26T07:37:24.874Z,80.16
2018-03-26T07:39:52.496Z,80.52
2018-03-26T07:42:20.062Z,80.86
2018-03-26T07:44:47.639Z,81.49
2018-03-26T07:47:15.199Z,81.46
2018-03-26T07:49:42.765Z,81.16
2018-03-26T07:52:10.379Z,80.79
2018-03-26T07:54:38.000Z,79.66
2018-03-26T07:57:05.634Z,79.41
2018-03-26T07:59:33.190Z,77.95
2018-03-26T08:02:00.762Z,78.24
2018-03-26T08:04:28.343Z,79.41
2018-03-26T08:06:55.975Z,79.60
2018-03-26T08:09:23.598Z,78.30
2018-03-26T08:11:51.217Z,77.55
2018-03-26T08:14:18.778Z,77.54
2018-03-26T08:16:46.418Z,76.00
2018-03-26T08:19:14.056Z,76.99
2018-03-26T08:21:41.682Z,76.47
2018-03-26T08:24:09.258Z,76.58
2018-03-26T08:26:36.828Z,75.16
2018-03-26T08:29:04.549Z,75.04
2018-03-26T08:31:32.112Z,74.06
2018-03-26T08:33:59.674Z,74.16
2018-03-26T08:36:27.269Z,73.11
2018-03-26T08:38:54.849Z,71.88
2018-03-26T08:41:22.432Z,72.96
2018-03-26T08:43:49.998Z,74.70
2018-03-26T08:46:17.622Z,74.81
2018-03-26T08:48:45.254Z,73.11
2018-03-26T08:51:12.832Z,74.16
2018-03-26T08:53:40.464Z,74.10
2018-03-26T08:56:08.002Z,75.16
2018-03-26T08:58:35.575Z,74.48
2018-03-26T09:01:03.191Z,73.08
2018-03-26T09:03:30.809Z,72.52
2018-03-26T09:05:58.370Z,72.59
2018-03-26T09:08:25.934Z,73.68
2018-03-26T09:10:53.510Z,74.91
2018-03-26T09:13:21.074Z,73.89
2018-03-26T09:15:48.683Z,74.24
2018-03-26T09:18:16.243Z,75.08
2018-03-26T09:20:44.614Z,74.75
2018-03-26T09:23:12.283Z,75.49
2018-03-26T09:25:39.898Z,76.14
2018-03-26T09:28:07.536Z,75.63
2018-03-26T09:30:35.107Z,75.21
2018-03-26T09:33:02.734Z,74.90
2018-03-26T09:35:30.308Z,75.55
2018-03-26T09:37:57.925Z,76.09
2018-03-26T09:40:25.486Z,74.57
2018-03-26T09:42:53.056Z,74.36
2018-03-26T09:45:20.626Z,73.23
2018-03-26T09:47:48.202Z,74.70
2018-03-26T09:50:15.814Z,73.30
2018-03-26T09:52:43.375Z,73.34
2018-03-26T09:55:11.068Z,74.03
2018-03-26T09:57:38.686Z,74.87
2018-03-26T10:00:06.324Z,75.00
2018-03-26T10:02:33.894Z,74.92
2018-03-26T10:05:01.457Z,75.19
2018-03-26T10:07:29.034Z,75.67
2018-03-26T10:09:56.654Z,75.62
2018-03-26T10:12:24.274Z,74.55
2018-03-26T10:14:51.894Z,73.72
2018-03-26T10:17:19.504Z,73.60
2018-03-26T10:19:47.139Z,74.16
2018-03-26T10:22:14.802Z,73.41
2018-03-26T10:24:42.378Z,74.00
2018-03-26T10:27:10.006Z,72.85
2018-03-26T10:29:37.644Z,73.31
2018-03-26T10:32:05.206Z,70.91
2018-03-26T10:34:32.826Z,74.57
2018-03-26T10:37:00.396Z,75.15
2018-03-26T10:39:28.019Z,74.20
2018-03-26T10:41:55.582Z,74.92
2018-03-26T10:44:23.206Z,74.69
2018-03-26T10:46:50.895Z,76.26
2018-03-26T10:49:18.458Z,75.82
2018-03-26T10:51:46.096Z,75.05
2018-03-26T10:54:13.732Z,74.80
2018-03-26T10:56:41.355Z,75.46
2018-03-26T10:59:08.931Z,75.02
2018-03-26T11:01:36.504Z,74.72
2018-03-26T11:04:04.173Z,74.52
2018-03-26T11:06:31.746Z,73.45
2018-03-26T11:08:59.322Z,74.17
2018-03-26T11:11:26.958Z,72.92
2018-03-26T11:13:54.524Z,73.16
2018-03-26T11:16:22.160Z,73.22
2018-03-26T11:18:49.735Z,71.88
2018-03-26T11:21:17.441Z,72.79
2018-03-26T11:23:45.082Z,72.55
2018-03-26T11:26:12.669Z,73.58
2018-03-26T11:28:40.251Z,75.07
2018-03-26T11:31:07.886Z,75.77
2018-03-26T11:33:35.523Z,76.06
2018-03-26T11:36:03.175Z,76.48
2018-03-26T11:38:30.755Z,77.30
2018-03-26T11:40:58.404Z,77.94
2018-03-26T11:43:25.987Z,77.66
2018-03-26T11:45:53.631Z,78.95
2018-03-26T11:48:21.275Z,77.39
2018-03-26T11:50:48.904Z,78.21
2018-03-26T11:53:16.548Z,77.89
2018-03-26T11:55:44.180Z,77.97
2018-03-26T11:58:11.802Z,76.90
2018-03-26T12:00:39.443Z,78.09
2018-03-26T12:03:07.410Z,78.71
2018-03-26T12:05:35.051Z,78.33
2018-03-26T12:08:02.698Z,78.71
2018-03-26T12:10:30.282Z,78.56
2018-03-26T12:12:57.861Z,78.56
2018-03-26T12:15:25.495Z,77.87
2018-03-26T12:17:53.084Z,78.57
2018-03-26T12:20:32.458Z,79.02
2018-03-26T12:23:06.800Z,79.43
2018-03-26T12:25:34.440Z,80.58
2018-03-26T12:28:13.929Z,80.71
2018-03-26T12:30:41.562Z,80.75
2018-03-26T12:33:09.227Z,81.72
2018-03-26T12:36:00.447Z,81.79
2018-03-26T12:38:28.018Z,82.65
2018-03-26T12:40:55.699Z,83.22
2018-03-26T12:43:23.278Z,82.68
2018-03-26T12:46:02.656Z,82.50
2018-03-26T12:48:30.751Z,84.00
2018-03-26T12:51:10.078Z,82.51
2018-03-26T12:53:37.708Z,83.34
2018-03-26T12:56:05.335Z,83.62
2018-03-26T12:58:51.889Z,83.66
2018-03-26T13:01:31.142Z,83.62
2018-03-26T13:03:58.722Z,84.14
2018-03-26T13:06:26.304Z,84.67
2018-03-26T13:08:53.939Z,84.30
2018-03-26T13:11:21.528Z,85.01
2018-03-26T13:13:49.140Z,85.02
2018-03-26T13:16:16.749Z,84.11
2018-03-26T13:18:44.331Z,84.78
2018-03-26T13:21:11.916Z,85.11
2018-03-26T13:23:39.582Z,85.39
2018-03-26T13:26:07.215Z,84.70
2018-03-26T13:28:34.842Z,84.31
2018-03-26T13:31:02.421Z,84.04
2018-03-26T13:33:30.046Z,83.35
2018-03-26T13:35:57.629Z,83.99
2018-03-26T13:38:25.217Z,84.34
2018-03-26T13:40:52.807Z,84.09
2018-03-26T13:43:20.497Z,83.87
2018-03-26T13:45:48.145Z,82.78
2018-03-26T13:48:15.760Z,82.88
2018-03-26T13:50:43.350Z,82.94
2018-03-26T13:53:10.943Z,83.12
2018-03-26T13:55:38.531Z,82.36
2018-03-26T13:58:06.187Z,83.29
2018-03-26T14:00:33.774Z,84.07
2018-03-26T14:03:01.403Z,84.28
2018-03-26T14:05:29.049Z,84.12
2018-03-26T14:07:56.682Z,84.12
2018-03-26T14:10:35.934Z,84.69
2018-03-26T14:13:15.260Z,84.96
2018-03-26T14:15:54.567Z,85.80
2018-03-26T14:18:22.149Z,85.88
2018-03-26T14:20:49.827Z,84.75
2018-03-26T14:23:17.418Z,85.06
2018-03-26T14:25:45.954Z,85.77
2018-03-26T14:28:13.539Z,85.08
2018-03-26T14:30:41.116Z,85.32
2018-03-26T14:33:08.704Z,86.25
2018-03-26T14:35:43.226Z,85.96
2018-03-26T14:38:10.823Z,85.66
2018-03-26T14:40:38.420Z,85.88
2018-03-26T14:43:06.119Z,85.77
2018-03-26T14:45:33.703Z,85.85
2018-03-26T14:48:01.375Z,85.61
2018-03-26T14:50:29.012Z,86.53
2018-03-26T14:52:56.609Z,86.24
2018-03-26T14:55:24.227Z,86.19
2018-03-26T14:57:51.810Z,86.73
2018-03-26T15:00:19.506Z,86.87
2018-03-26T15:02:47.134Z,86.35
2018-03-26T15:05:14.824Z,87.00
2018-03-26T15:07:42.420Z,87.05
2018-03-26T15:10:10.002Z,87.27
2018-03-26T15:12:37.648Z,86.88
2018-03-26T15:15:05.294Z,87.04
2018-03-26T15:17:32.995Z,87.35
2018-03-26T15:20:00.627Z,86.98
2018-03-26T15:22:28.202Z,86.93
2018-03-26T15:24:55.791Z,87.00
2018-03-26T15:27:23.514Z,86.87
2018-03-26T15:29:51.066Z,86.82
2018-03-26T15:32:18.712Z,86.94
2018-03-26T15:34:46.395Z,87.27
2018-03-26T15:37:14.039Z,86.95
2018-03-26T15:39:41.644Z,87.70
2018-03-26T15:42:09.810Z,87.79
2018-03-26T15:44:37.395Z,88.01
2018-03-26T15:47:05.001Z,88.07
2018-03-26T15:49:32.583Z,88.10
2018-03-26T15:52:00.218Z,88.26
2018-03-26T15:54:27.853Z,88.13
2018-03-26T15:56:55.435Z,88.09
2018-03-26T15:59:23.034Z,88.37
2018-03-26T16:01:50.619Z,88.73
2018-03-26T16:04:18.245Z,88.47
2018-03-26T16:06:45.821Z,88.78
2018-03-26T16:09:13.526Z,89.07
2018-03-26T16:11:41.102Z,88.41
2018-03-26T16:14:08.744Z,87.87
2018-03-26T16:16:36.333Z,88.01
2018-03-26T16:19:03.983Z,87.82
2018-03-26T16:21:31.618Z,87.35
2018-03-26T16:23:59.206Z,87.51
2018-03-26T16:26:26.912Z,87.28
2018-03-26T16:28:54.500Z,87.49
2018-03-26T16:31:22.090Z,87.22
2018-03-26T16:33:49.691Z,87.62
2018-03-26T16:36:17.277Z,87.94
2018-03-26T16:38:44.932Z,88.11
2018-03-26T16:41:12.633Z,88.41
2018-03-26T16:43:40.350Z,88.40
2018-03-26T16:46:07.947Z,88.27
2018-03-26T16:48:35.534Z,87.05
2018-03-26T16:51:04.746Z,87.50
2018-03-26T16:53:32.338Z,87.62
2018-03-26T16:55:59.998Z,87.25
2018-03-26T16:58:27.579Z,86.75
2018-03-26T17:00:55.300Z,87.45
2018-03-26T17:03:22.900Z,87.61
2018-03-26T17:05:50.507Z,87.77
2018-03-26T17:08:18.100Z,87.74
2018-03-26T17:10:45.760Z,87.77
2018-03-26T17:13:13.366Z,87.39
2018-03-26T17:15:41.046Z,88.02
2018-03-26T17:18:08.686Z,87.52
2018-03-26T17:20:36.271Z,87.68
2018-03-26T17:23:03.851Z,87.44
2018-03-26T17:25:31.434Z,87.38
2018-03-26T17:27:59.430Z,87.30
2018-03-26T17:30:27.015Z,87.33
2018-03-26T17:32:54.594Z,87.22
2018-03-26T17:35:22.231Z,87.45
2018-03-26T17:37:49.819Z,87.51
2018-03-26T17:40:17.394Z,87.27
2018-03-26T17:42:45.599Z,87.91
2018-03-26T17:45:14.500Z,87.83
2018-03-26T17:47:43.032Z,87.74
2018-03-26T17:50:10.615Z,88.19
2018-03-26T17:52:38.258Z,88.06
2018-03-26T17:55:05.839Z,88.18
2018-03-26T17:57:33.418Z,87.95
2018-03-26T18:00:01.006Z,88.05
2018-03-26T18:02:28.597Z,88.05
2018-03-26T18:04:56.190Z,88.33
2018-03-26T18:07:23.775Z,88.06
2018-03-26T18:09:51.410Z,88.16
2018-03-26T18:12:19.066Z,87.90
2018-03-26T18:14:46.653Z,88.15
2018-03-26T18:17:14.246Z,88.22
2018-03-26T18:19:42.020Z,88.32
2018-03-26T18:22:09.646Z,88.51
2018-03-26T18:24:37.306Z,88.39
2018-03-26T18:27:04.958Z,88.10
2018-03-26T18:29:32.532Z,88.04
2018-03-26T18:32:00.191Z,88.00
2018-03-26T18:34:27.838Z,87.76
2018-03-26T18:36:55.442Z,87.41
2018-03-26T18:39:23.087Z,87.22
2018-03-26T18:41:50.724Z,87.11
2018-03-26T18:44:18.378Z,86.74
2018-03-26T18:46:45.961Z,86.94
2018-03-26T18:49:13.625Z,86.63
2018-03-26T18:51:41.217Z,86.47
2018-03-26T18:54:10.640Z,86.83
2018-03-26T18:56:38.671Z,87.29
2018-03-26T18:59:06.242Z,87.24
2018-03-26T19:01:33.951Z,86.86
2018-03-26T19:04:01.599Z,86.89
2018-03-26T19:06:29.261Z,87.11
2018-03-26T19:08:56.860Z,87.07
2018-03-26T19:11:24.498Z,87.18
2018-03-26T19:13:52.089Z,86.84
2018-03-26T19:16:19.723Z,86.94
2018-03-26T19:18:47.371Z,87.34
2018-03-26T19:21:15.783Z,87.18
2018-03-26T19:23:43.369Z,87.43
2018-03-26T19:26:10.975Z,87.40
2018-03-26T19:28:38.576Z,87.47
2018-03-26T19:31:06.175Z,87.43
2018-03-26T19:33:33.750Z,87.34
2018-03-26T19:36:01.384Z,87.22
2018-03-26T19:38:28.972Z,86.75
2018-03-26T19:40:56.547Z,87.42
2018-03-26T19:43:24.141Z,87.14
2018-03-26T19:45:51.797Z,87.10
2018-03-26T19:48:19.489Z,87.23
2018-03-26T19:50:47.073Z,86.87
2018-03-26T19:53:14.656Z,86.82
2018-03-26T19:55:42.295Z,86.88
2018-03-26T19:58:09.940Z,86.98
2018-03-26T20:00:37.562Z,87.17
2018-03-26T20:03:05.199Z,87.07
2018-03-26T20:05:32.827Z,87.17
2018-03-26T20:08:00.463Z,87.16
2018-03-26T20:10:28.117Z,87.16
2018-03-26T20:12:55.807Z,87.09
2018-03-26T20:15:23.386Z,87.13
2018-03-26T20:17:51.014Z,87.10
2018-03-26T20:20:18.643Z,86.95
2018-03-26T20:22:46.283Z,87.17
2018-03-26T20:25:13.868Z,86.79
2018-03-26T20:27:41.442Z,86.99
2018-03-26T20:30:09.082Z,86.91
2018-03-26T20:32:36.655Z,87.04
2018-03-26T20:35:04.230Z,87.04
2018-03-26T20:37:31.882Z,87.06
2018-03-26T20:39:59.511Z,87.07
2018-03-26T20:42:27.104Z,86.94
2018-03-26T20:44:54.753Z,86.49
2018-03-26T20:47:22.395Z,86.77
2018-03-26T20:49:49.971Z,86.75
2018-03-26T20:52:17.549Z,86.78
2018-03-26T20:54:45.126Z,86.81
2018-03-26T20:57:12.766Z,86.73
2018-03-26T20:59:40.404Z,86.61
2018-03-26T21:02:08.035Z,86.25
2018-03-26T21:04:35.667Z,86.25
2018-03-26T21:07:03.312Z,86.18
2018-03-26T21:09:30.892Z,85.73
2018-03-26T21:11:58.473Z,85.25
2018-03-26T21:14:26.108Z,85.31
2018-03-26T21:16:53.807Z,85.38
2018-03-26T21:19:21.381Z,85.49
2018-03-26T21:21:48.946Z,85.56
2018-03-26T21:24:16.522Z,85.76
2018-03-26T21:26:44.134Z,85.94
2018-03-26T21:29:11.719Z,86.41
2018-03-26T21:31:39.286Z,86.77
2018-03-26T21:34:06.918Z,86.64
2018-03-26T21:36:34.528Z,86.68
2018-03-26T21:39:02.181Z,86.94
2018-03-26T21:41:29.818Z,87.18
2018-03-26T21:43:57.461Z,87.33
2018-03-26T21:46:25.098Z,86.89
2018-03-26T21:48:52.722Z,86.77
2018-03-26T21:51:20.370Z,86.80
2018-03-26T21:53:47.968Z,86.98
2018-03-26T21:56:15.545Z,87.08
2018-03-26T21:58:43.140Z,87.22
2018-03-26T22:01:10.706Z,87.47
2018-03-26T22:03:38.342Z,87.41
2018-03-26T22:06:05.971Z,87.21
2018-03-26T22:08:33.537Z,87.51
2018-03-26T22:11:01.125Z,87.48
2018-03-26T22:13:28.698Z,87.46
2018-03-26T22:15:56.276Z,87.59
2018-03-26T22:18:23.846Z,87.72
2018-03-26T22:20:51.491Z,87.63
2018-03-26T22:23:19.999Z,87.69
2018-03-26T22:25:47.565Z,87.85
2018-03-26T22:28:15.166Z,87.77
2018-03-26T22:30:42.741Z,87.64
2018-03-26T22:33:10.315Z,87.81
2018-03-26T22:35:37.942Z,87.67
2018-03-26T22:38:05.639Z,87.43
2018-03-26T22:40:33.267Z,87.51
2018-03-26T22:43:00.895Z,87.67
2018-03-26T22:45:28.476Z,87.55
2018-03-26T22:47:56.054Z,87.92
2018-03-26T22:50:23.687Z,87.85
2018-03-26T22:52:51.267Z,87.82
2018-03-26T22:55:18.886Z,87.77
2018-03-26T22:57:46.514Z,87.94
2018-03-26T23:00:14.238Z,87.97
2018-03-26T23:02:41.818Z,87.51
2018-03-26T23:05:09.455Z,87.26
2018-03-26T23:07:37.037Z,87.17
2018-03-26T23:10:04.625Z,87.24
2018-03-26T23:12:32.257Z,87.25
2018-03-26T23:14:59.890Z,87.21
2018-03-26T23:17:27.538Z,87.20
2018-03-26T23:19:55.118Z,87.05
2018-03-26T23:22:34.714Z,87.19
2018-03-26T23:25:02.355Z,87.14
2018-03-26T23:27:29.931Z,87.06
2018-03-26T23:29:57.609Z,87.26
2018-03-26T23:32:25.235Z,87.44
2018-03-26T23:34:52.826Z,87.36
2018-03-26T23:37:20.411Z,87.43
2018-03-26T23:39:47.986Z,87.36
2018-03-26T23:42:15.566Z,87.64
2018-03-26T23:44:43.134Z,87.89
2018-03-26T23:47:10.762Z,87.49
2018-03-26T23:49:38.330Z,87.39
2018-03-26T23:52:05.895Z,87.54
2018-03-26T23:54:33.543Z,87.71
2018-03-26T23:57:01.124Z,87.49
2018-03-26T23:59:28.701Z,87.35
